sensor_id;sensor_type;location;lat;lon;timestamp;pressure;altitude;pressure_sealevel;temperature;humidity
41686;BME280;27370;42.764;23.432;2023-02-14T00:01:36;97012.69;;;-3.46;100.00
41686;BME280;27370;42.764;23.432;2023-02-14T00:04:02;97019.78;;;-3.41;100.00
41686;BME280;27370;42.764;23.432;2023-02-14T00:06:30;97007.75;;;-3.52;100.00
41686;BME280;27370;42.764;23.432;2023-02-14T00:09:00;97022.16;;;-3.40;100.00
41686;BME280;27370;42.764;23.432;2023-02-14T00:11:26;97023.63;;;-3.28;100.00
41686;BME280;27370;42.764;23.432;2023-02-14T00:13:51;97014.59;;;-3.27;100.00
41686;BME280;27370;42.764;23.432;2023-02-14T00:16:35;97014.44;;;-3.36;100.00
41686;BME280;27370;42.764;23.432;2023-02-14T00:19:01;97026.56;;;-3.30;100.00
41686;BME280;27370;42.764;23.432;2023-02-14T00:21:36;97030.91;;;-3.39;100.00
41686;BME280;27370;42.764;23.432;2023-02-14T00:24:12;97027.22;;;-3.43;100.00
41686;BME280;27370;42.764;23.432;2023-02-14T00:26:38;97016.59;;;-3.38;100.00
41686;BME280;27370;42.764;23.432;2023-02-14T00:29:10;97021.88;;;-3.14;100.00
41686;BME280;27370;42.764;23.432;2023-02-14T00:31:37;97016.41;;;-3.23;100.00
41686;BME280;27370;42.764;23.432;2023-02-14T00:34:04;97027.19;;;-3.14;100.00
41686;BME280;27370;42.764;23.432;2023-02-14T00:36:29;97017.38;;;-3.14;100.00
41686;BME280;27370;42.764;23.432;2023-02-14T00:38:55;97007.59;;;-3.18;100.00
41686;BME280;27370;42.764;23.432;2023-02-14T00:41:21;97012.56;;;-3.12;100.00
41686;BME280;27370;42.764;23.432;2023-02-14T00:43:52;97023.84;;;-3.25;100.00
41686;BME280;27370;42.764;23.432;2023-02-14T00:46:19;96998.50;;;-3.31;100.00
41686;BME280;27370;42.764;23.432;2023-02-14T00:48:45;97012.13;;;-3.19;100.00
41686;BME280;27370;42.764;23.432;2023-02-14T00:51:11;97013.03;;;-3.28;100.00
41686;BME280;27370;42.764;23.432;2023-02-14T00:53:37;97009.66;;;-3.34;100.00
41686;BME280;27370;42.764;23.432;2023-02-14T00:56:04;97013.03;;;-3.52;100.00
41686;BME280;27370;42.764;23.432;2023-02-14T00:58:30;97009.25;;;-3.46;100.00
41686;BME280;27370;42.764;23.432;2023-02-14T01:00:56;96998.78;;;-3.56;100.00
41686;BME280;27370;42.764;23.432;2023-02-14T01:03:22;96993.78;;;-3.58;100.00
41686;BME280;27370;42.764;23.432;2023-02-14T01:05:49;96980.19;;;-3.51;100.00
41686;BME280;27370;42.764;23.432;2023-02-14T01:08:16;96993.72;;;-3.29;100.00
41686;BME280;27370;42.764;23.432;2023-02-14T01:10:41;96982.69;;;-3.36;100.00
41686;BME280;27370;42.764;23.432;2023-02-14T01:13:08;96994.28;;;-3.32;100.00
41686;BME280;27370;42.764;23.432;2023-02-14T01:15:38;96987.16;;;-3.13;100.00
41686;BME280;27370;42.764;23.432;2023-02-14T01:18:04;96989.88;;;-2.99;100.00
41686;BME280;27370;42.764;23.432;2023-02-14T01:20:30;96983.09;;;-3.05;100.00
41686;BME280;27370;42.764;23.432;2023-02-14T01:22:56;96969.69;;;-3.14;100.00
41686;BME280;27370;42.764;23.432;2023-02-14T01:25:22;96978.00;;;-3.01;100.00
41686;BME280;27370;42.764;23.432;2023-02-14T01:27:47;96978.84;;;-3.06;100.00
41686;BME280;27370;42.764;23.432;2023-02-14T01:30:13;96965.91;;;-2.89;100.00
41686;BME280;27370;42.764;23.432;2023-02-14T01:32:39;96950.94;;;-2.80;100.00
41686;BME280;27370;42.764;23.432;2023-02-14T01:35:05;96960.53;;;-2.65;100.00
41686;BME280;27370;42.764;23.432;2023-02-14T01:37:30;96951.22;;;-2.62;100.00
41686;BME280;27370;42.764;23.432;2023-02-14T01:39:56;96954.88;;;-2.58;100.00
41686;BME280;27370;42.764;23.432;2023-02-14T01:42:21;96948.66;;;-2.67;100.00
41686;BME280;27370;42.764;23.432;2023-02-14T01:47:15;96942.06;;;-2.89;100.00
41686;BME280;27370;42.764;23.432;2023-02-14T01:49:47;96947.66;;;-2.90;100.00
41686;BME280;27370;42.764;23.432;2023-02-14T01:52:19;96943.03;;;-3.22;100.00
41686;BME280;27370;42.764;23.432;2023-02-14T01:55:00;96942.91;;;-3.12;100.00
41686;BME280;27370;42.764;23.432;2023-02-14T01:57:39;96947.06;;;-3.06;100.00
41686;BME280;27370;42.764;23.432;2023-02-14T02:00:08;96953.94;;;-3.05;100.00
41686;BME280;27370;42.764;23.432;2023-02-14T02:02:54;96934.50;;;-3.38;100.00
41686;BME280;27370;42.764;23.432;2023-02-14T02:05:21;96938.31;;;-3.25;100.00
41686;BME280;27370;42.764;23.432;2023-02-14T02:07:53;96952.34;;;-3.25;100.00
41686;BME280;27370;42.764;23.432;2023-02-14T02:10:19;96939.03;;;-3.20;100.00
41686;BME280;27370;42.764;23.432;2023-02-14T02:12:49;96933.41;;;-3.13;100.00
41686;BME280;27370;42.764;23.432;2023-02-14T02:15:15;96939.59;;;-3.23;100.00
41686;BME280;27370;42.764;23.432;2023-02-14T02:18:27;96938.69;;;-3.13;100.00
41686;BME280;27370;42.764;23.432;2023-02-14T02:21:14;96929.97;;;-3.14;100.00
41686;BME280;27370;42.764;23.432;2023-02-14T02:24:00;96920.84;;;-3.08;100.00
41686;BME280;27370;42.764;23.432;2023-02-14T02:34:41;96903.00;;;-3.21;100.00
41686;BME280;27370;42.764;23.432;2023-02-14T02:47:33;96888.94;;;-3.16;100.00
41686;BME280;27370;42.764;23.432;2023-02-14T02:58:59;96895.63;;;-3.43;100.00
41686;BME280;27370;42.764;23.432;2023-02-14T03:01:36;96899.00;;;-3.37;100.00
41686;BME280;27370;42.764;23.432;2023-02-14T03:04:09;96905.94;;;-3.41;100.00
41686;BME280;27370;42.764;23.432;2023-02-14T03:06:55;96900.19;;;-3.48;100.00
41686;BME280;27370;42.764;23.432;2023-02-14T03:12:44;96911.56;;;-3.48;100.00
41686;BME280;27370;42.764;23.432;2023-02-14T03:20:45;96891.78;;;-3.98;100.00
41686;BME280;27370;42.764;23.432;2023-02-14T03:23:20;96877.31;;;-4.29;100.00
41686;BME280;27370;42.764;23.432;2023-02-14T03:26:19;96871.09;;;-4.44;100.00
41686;BME280;27370;42.764;23.432;2023-02-14T03:28:58;96876.44;;;-4.54;100.00
41686;BME280;27370;42.764;23.432;2023-02-14T03:31:33;96884.72;;;-4.60;100.00
41686;BME280;27370;42.764;23.432;2023-02-14T03:36:54;96881.66;;;-4.73;100.00
41686;BME280;27370;42.764;23.432;2023-02-14T03:44:43;96867.81;;;-4.36;100.00
41686;BME280;27370;42.764;23.432;2023-02-14T03:47:16;96871.19;;;-4.25;100.00
41686;BME280;27370;42.764;23.432;2023-02-14T03:49:47;96857.97;;;-4.30;100.00
41686;BME280;27370;42.764;23.432;2023-02-14T03:52:14;96860.28;;;-4.47;100.00
41686;BME280;27370;42.764;23.432;2023-02-14T03:54:44;96851.47;;;-4.67;100.00
41686;BME280;27370;42.764;23.432;2023-02-14T03:57:33;96842.09;;;-4.25;100.00
41686;BME280;27370;42.764;23.432;2023-02-14T04:00:01;96845.34;;;-4.09;100.00
41686;BME280;27370;42.764;23.432;2023-02-14T04:02:43;96835.00;;;-4.06;100.00
41686;BME280;27370;42.764;23.432;2023-02-14T04:05:37;96849.03;;;-4.05;100.00
41686;BME280;27370;42.764;23.432;2023-02-14T04:08:06;96848.94;;;-4.00;100.00
41686;BME280;27370;42.764;23.432;2023-02-14T04:10:32;96838.19;;;-4.09;100.00
41686;BME280;27370;42.764;23.432;2023-02-14T04:12:58;96841.53;;;-3.98;100.00
41686;BME280;27370;42.764;23.432;2023-02-14T04:15:23;96838.72;;;-3.83;100.00
41686;BME280;27370;42.764;23.432;2023-02-14T04:17:49;96843.53;;;-3.90;100.00
41686;BME280;27370;42.764;23.432;2023-02-14T04:20:33;96829.13;;;-3.79;100.00
41686;BME280;27370;42.764;23.432;2023-02-14T04:22:59;96835.63;;;-3.71;100.00
41686;BME280;27370;42.764;23.432;2023-02-14T04:25:24;96816.22;;;-3.61;100.00
41686;BME280;27370;42.764;23.432;2023-02-14T04:27:50;96836.81;;;-3.58;100.00
41686;BME280;27370;42.764;23.432;2023-02-14T04:30:16;96838.78;;;-3.69;100.00
41686;BME280;27370;42.764;23.432;2023-02-14T04:32:47;96845.94;;;-3.70;100.00
41686;BME280;27370;42.764;23.432;2023-02-14T04:35:13;96834.63;;;-3.75;100.00
41686;BME280;27370;42.764;23.432;2023-02-14T04:37:40;96829.63;;;-3.77;100.00
41686;BME280;27370;42.764;23.432;2023-02-14T04:40:06;96829.63;;;-3.77;100.00
41686;BME280;27370;42.764;23.432;2023-02-14T04:42:32;96819.53;;;-3.75;100.00
41686;BME280;27370;42.764;23.432;2023-02-14T04:44:58;96812.19;;;-3.78;100.00
41686;BME280;27370;42.764;23.432;2023-02-14T04:47:23;96807.97;;;-3.79;100.00
41686;BME280;27370;42.764;23.432;2023-02-14T04:49:49;96809.53;;;-3.78;100.00
41686;BME280;27370;42.764;23.432;2023-02-14T04:52:14;96813.03;;;-3.63;100.00
41686;BME280;27370;42.764;23.432;2023-02-14T04:54:40;96805.75;;;-3.72;100.00
41686;BME280;27370;42.764;23.432;2023-02-14T04:57:05;96815.81;;;-3.74;100.00
41686;BME280;27370;42.764;23.432;2023-02-14T04:59:31;96814.34;;;-3.61;100.00
41686;BME280;27370;42.764;23.432;2023-02-14T05:01:57;96820.13;;;-3.59;100.00
41686;BME280;27370;42.764;23.432;2023-02-14T05:04:22;96811.16;;;-3.63;100.00
41686;BME280;27370;42.764;23.432;2023-02-14T05:06:48;96806.91;;;-3.59;100.00
41686;BME280;27370;42.764;23.432;2023-02-14T05:09:14;96813.47;;;-3.56;100.00
41686;BME280;27370;42.764;23.432;2023-02-14T05:11:40;96802.53;;;-3.68;100.00
41686;BME280;27370;42.764;23.432;2023-02-14T05:14:05;96804.31;;;-3.64;100.00
41686;BME280;27370;42.764;23.432;2023-02-14T05:16:31;96810.38;;;-3.63;100.00
41686;BME280;27370;42.764;23.432;2023-02-14T05:18:57;96811.53;;;-3.70;100.00
41686;BME280;27370;42.764;23.432;2023-02-14T05:21:22;96813.97;;;-3.73;100.00
41686;BME280;27370;42.764;23.432;2023-02-14T05:23:48;96808.75;;;-3.78;100.00
41686;BME280;27370;42.764;23.432;2023-02-14T05:26:13;96814.03;;;-3.78;100.00
41686;BME280;27370;42.764;23.432;2023-02-14T05:28:39;96807.91;;;-3.97;100.00
41686;BME280;27370;42.764;23.432;2023-02-14T05:31:05;96807.47;;;-4.05;100.00
41686;BME280;27370;42.764;23.432;2023-02-14T05:33:31;96819.44;;;-3.88;100.00
41686;BME280;27370;42.764;23.432;2023-02-14T05:35:59;96811.22;;;-3.87;100.00
41686;BME280;27370;42.764;23.432;2023-02-14T05:38:27;96807.66;;;-3.77;100.00
41686;BME280;27370;42.764;23.432;2023-02-14T05:40:53;96811.22;;;-3.87;100.00
41686;BME280;27370;42.764;23.432;2023-02-14T05:43:19;96809.75;;;-3.74;100.00
41686;BME280;27370;42.764;23.432;2023-02-14T05:45:44;96810.09;;;-3.81;100.00
41686;BME280;27370;42.764;23.432;2023-02-14T05:48:11;96791.00;;;-3.78;100.00
41686;BME280;27370;42.764;23.432;2023-02-14T05:50:37;96804.09;;;-3.67;100.00
41686;BME280;27370;42.764;23.432;2023-02-14T05:53:03;96805.66;;;-3.66;100.00
41686;BME280;27370;42.764;23.432;2023-02-14T05:55:29;96817.50;;;-3.59;100.00
41686;BME280;27370;42.764;23.432;2023-02-14T05:57:54;96811.84;;;-3.52;100.00
41686;BME280;27370;42.764;23.432;2023-02-14T06:00:21;96811.34;;;-3.54;100.00
41686;BME280;27370;42.764;23.432;2023-02-14T06:02:47;96795.59;;;-3.46;100.00
41686;BME280;27370;42.764;23.432;2023-02-14T06:05:12;96813.13;;;-3.31;100.00
41686;BME280;27370;42.764;23.432;2023-02-14T06:07:39;96810.38;;;-3.07;100.00
41686;BME280;27370;42.764;23.432;2023-02-14T06:10:08;96810.16;;;-3.11;100.00
41686;BME280;27370;42.764;23.432;2023-02-14T06:12:34;96814.13;;;-2.94;100.00
41686;BME280;27370;42.764;23.432;2023-02-14T06:14:59;96811.44;;;-2.75;100.00
41686;BME280;27370;42.764;23.432;2023-02-14T06:17:25;96821.31;;;-2.62;100.00
41686;BME280;27370;42.764;23.432;2023-02-14T06:19:50;96806.88;;;-2.70;100.00
41686;BME280;27370;42.764;23.432;2023-02-14T06:22:16;96825.81;;;-2.63;100.00
41686;BME280;27370;42.764;23.432;2023-02-14T06:24:41;96819.75;;;-2.63;100.00
41686;BME280;27370;42.764;23.432;2023-02-14T06:27:06;96820.38;;;-2.39;100.00
41686;BME280;27370;42.764;23.432;2023-02-14T06:29:32;96820.97;;;-2.14;100.00
41686;BME280;27370;42.764;23.432;2023-02-14T06:31:57;96823.41;;;-2.04;100.00
41686;BME280;27370;42.764;23.432;2023-02-14T06:34:29;96828.34;;;-1.84;100.00
41686;BME280;27370;42.764;23.432;2023-02-14T06:36:55;96812.03;;;-1.77;100.00
41686;BME280;27370;42.764;23.432;2023-02-14T06:39:20;96818.50;;;-1.56;100.00
41686;BME280;27370;42.764;23.432;2023-02-14T06:41:46;96811.75;;;-1.40;100.00
41686;BME280;27370;42.764;23.432;2023-02-14T06:44:11;96822.31;;;-1.12;100.00
41686;BME280;27370;42.764;23.432;2023-02-14T06:46:37;96814.94;;;-0.93;100.00
41686;BME280;27370;42.764;23.432;2023-02-14T06:49:02;96810.03;;;-0.77;100.00
41686;BME280;27370;42.764;23.432;2023-02-14T06:51:28;96812.34;;;-0.62;100.00
41686;BME280;27370;42.764;23.432;2023-02-14T06:53:53;96795.31;;;-0.52;100.00
41686;BME280;27370;42.764;23.432;2023-02-14T06:56:18;96797.91;;;-0.39;100.00
41686;BME280;27370;42.764;23.432;2023-02-14T06:58:44;96788.81;;;-0.38;100.00
41686;BME280;27370;42.764;23.432;2023-02-14T07:01:10;96802.84;;;-0.15;100.00
41686;BME280;27370;42.764;23.432;2023-02-14T07:03:35;96792.22;;;-0.06;100.00
41686;BME280;27370;42.764;23.432;2023-02-14T07:06:01;96777.88;;;0.04;100.00
41686;BME280;27370;42.764;23.432;2023-02-14T07:08:26;96770.81;;;0.16;100.00
41686;BME280;27370;42.764;23.432;2023-02-14T07:10:56;96786.06;;;0.42;100.00
41686;BME280;27370;42.764;23.432;2023-02-14T07:13:21;96791.13;;;0.60;100.00
41686;BME280;27370;42.764;23.432;2023-02-14T07:15:47;96798.16;;;0.56;100.00
41686;BME280;27370;42.764;23.432;2023-02-14T07:18:12;96793.78;;;0.52;100.00
41686;BME280;27370;42.764;23.432;2023-02-14T07:20:38;96786.41;;;0.57;100.00
41686;BME280;27370;42.764;23.432;2023-02-14T07:23:04;96794.25;;;0.63;100.00
41686;BME280;27370;42.764;23.432;2023-02-14T07:25:29;96800.06;;;0.82;100.00
41686;BME280;27370;42.764;23.432;2023-02-14T07:27:55;96780.16;;;0.97;100.00
41686;BME280;27370;42.764;23.432;2023-02-14T07:30:20;96775.09;;;1.21;100.00
41686;BME280;27370;42.764;23.432;2023-02-14T07:32:46;96786.19;;;1.40;100.00
41686;BME280;27370;42.764;23.432;2023-02-14T07:35:12;96788.06;;;1.48;100.00
41686;BME280;27370;42.764;23.432;2023-02-14T07:37:37;96790.00;;;1.77;100.00
41686;BME280;27370;42.764;23.432;2023-02-14T07:40:04;96771.50;;;1.72;100.00
41686;BME280;27370;42.764;23.432;2023-02-14T07:42:30;96782.88;;;1.90;100.00
41686;BME280;27370;42.764;23.432;2023-02-14T07:44:56;96784.19;;;2.13;100.00
41686;BME280;27370;42.764;23.432;2023-02-14T07:47:21;96786.66;;;2.27;100.00
41686;BME280;27370;42.764;23.432;2023-02-14T07:49:50;96790.41;;;2.26;100.00
41686;BME280;27370;42.764;23.432;2023-02-14T07:52:15;96787.44;;;2.28;100.00
41686;BME280;27370;42.764;23.432;2023-02-14T07:54:41;96805.97;;;2.54;100.00
41686;BME280;27370;42.764;23.432;2023-02-14T07:57:07;96795.00;;;2.46;100.00
41686;BME280;27370;42.764;23.432;2023-02-14T07:59:33;96800.56;;;2.62;100.00
41686;BME280;27370;42.764;23.432;2023-02-14T08:01:58;96792.41;;;2.59;100.00
41686;BME280;27370;42.764;23.432;2023-02-14T08:04:24;96791.88;;;2.86;100.00
41686;BME280;27370;42.764;23.432;2023-02-14T08:06:52;96802.13;;;2.84;100.00
41686;BME280;27370;42.764;23.432;2023-02-14T08:09:19;96803.25;;;2.83;100.00
41686;BME280;27370;42.764;23.432;2023-02-14T08:11:51;96802.88;;;2.72;100.00
41686;BME280;27370;42.764;23.432;2023-02-14T08:14:36;96800.97;;;2.73;100.00
41686;BME280;27370;42.764;23.432;2023-02-14T08:17:01;96802.78;;;2.81;100.00
41686;BME280;27370;42.764;23.432;2023-02-14T08:19:28;96814.97;;;2.70;100.00
41686;BME280;27370;42.764;23.432;2023-02-14T08:21:53;96828.50;;;2.73;100.00
41686;BME280;27370;42.764;23.432;2023-02-14T08:24:19;96818.38;;;2.58;100.00
41686;BME280;27370;42.764;23.432;2023-02-14T08:26:44;96805.22;;;2.44;100.00
41686;BME280;27370;42.764;23.432;2023-02-14T08:29:10;96803.31;;;2.54;100.00
41686;BME280;27370;42.764;23.432;2023-02-14T08:31:37;96812.25;;;2.58;100.00
41686;BME280;27370;42.764;23.432;2023-02-14T08:34:03;96801.53;;;2.58;100.00
41686;BME280;27370;42.764;23.432;2023-02-14T08:36:29;96804.22;;;2.79;100.00
41686;BME280;27370;42.764;23.432;2023-02-14T08:38:54;96816.28;;;3.05;100.00
41686;BME280;27370;42.764;23.432;2023-02-14T08:41:22;96827.50;;;3.20;100.00
41686;BME280;27370;42.764;23.432;2023-02-14T08:43:48;96825.19;;;3.30;100.00
41686;BME280;27370;42.764;23.432;2023-02-14T08:46:14;96807.63;;;3.42;100.00
41686;BME280;27370;42.764;23.432;2023-02-14T08:48:42;96814.22;;;3.44;100.00
41686;BME280;27370;42.764;23.432;2023-02-14T08:51:09;96820.50;;;3.60;100.00
41686;BME280;27370;42.764;23.432;2023-02-14T08:53:37;96818.59;;;3.49;100.00
41686;BME280;27370;42.764;23.432;2023-02-14T08:56:04;96817.25;;;3.55;100.00
41686;BME280;27370;42.764;23.432;2023-02-14T08:58:30;96806.88;;;3.53;100.00
41686;BME280;27370;42.764;23.432;2023-02-14T09:00:56;96820.94;;;3.50;100.00
41686;BME280;27370;42.764;23.432;2023-02-14T09:03:22;96804.78;;;3.26;100.00
41686;BME280;27370;42.764;23.432;2023-02-14T09:05:47;96817.63;;;3.32;100.00
41686;BME280;27370;42.764;23.432;2023-02-14T09:08:13;96816.38;;;3.30;100.00
41686;BME280;27370;42.764;23.432;2023-02-14T09:10:38;96805.56;;;3.26;100.00
41686;BME280;27370;42.764;23.432;2023-02-14T09:13:04;96798.44;;;3.30;100.00
41686;BME280;27370;42.764;23.432;2023-02-14T09:15:29;96805.28;;;3.40;100.00
41686;BME280;27370;42.764;23.432;2023-02-14T09:17:55;96786.03;;;3.26;100.00
41686;BME280;27370;42.764;23.432;2023-02-14T09:20:20;96788.34;;;3.60;100.00
41686;BME280;27370;42.764;23.432;2023-02-14T09:22:46;96797.66;;;3.63;100.00
41686;BME280;27370;42.764;23.432;2023-02-14T09:25:12;96786.94;;;3.63;100.00
41686;BME280;27370;42.764;23.432;2023-02-14T09:27:38;96805.69;;;3.63;100.00
41686;BME280;27370;42.764;23.432;2023-02-14T09:30:07;96804.81;;;3.71;100.00
41686;BME280;27370;42.764;23.432;2023-02-14T09:32:33;96793.53;;;3.78;100.00
41686;BME280;27370;42.764;23.432;2023-02-14T09:34:59;96786.84;;;3.84;100.00
41686;BME280;27370;42.764;23.432;2023-02-14T09:37:43;96783.84;;;3.97;100.00
41686;BME280;27370;42.764;23.432;2023-02-14T09:40:12;96792.66;;;3.98;100.00
41686;BME280;27370;42.764;23.432;2023-02-14T09:45:14;96784.63;;;3.86;100.00
41686;BME280;27370;42.764;23.432;2023-02-14T09:47:54;96795.91;;;4.04;100.00
41686;BME280;27370;42.764;23.432;2023-02-14T09:52:56;96777.69;;;4.21;100.00
41686;BME280;27370;42.764;23.432;2023-02-14T09:55:26;96776.78;;;4.54;100.00
41686;BME280;27370;42.764;23.432;2023-02-14T10:00:51;96785.25;;;5.08;100.00
41686;BME280;27370;42.764;23.432;2023-02-14T10:11:16;96761.56;;;5.26;100.00
41686;BME280;27370;42.764;23.432;2023-02-14T10:13:48;96779.00;;;4.64;100.00
41686;BME280;27370;42.764;23.432;2023-02-14T10:18:51;96775.19;;;5.05;100.00
41686;BME280;27370;42.764;23.432;2023-02-14T10:21:40;96775.63;;;4.67;100.00
41686;BME280;27370;42.764;23.432;2023-02-14T10:24:16;96771.78;;;4.40;100.00
41686;BME280;27370;42.764;23.432;2023-02-14T10:26:44;96765.28;;;4.29;100.00
41686;BME280;27370;42.764;23.432;2023-02-14T10:29:16;96766.75;;;4.26;100.00
41686;BME280;27370;42.764;23.432;2023-02-14T10:31:58;96770.44;;;3.97;100.00
41686;BME280;27370;42.764;23.432;2023-02-14T10:51:33;96745.19;;;3.62;100.00
41686;BME280;27370;42.764;23.432;2023-02-14T10:56:51;96746.06;;;3.54;100.00
41686;BME280;27370;42.764;23.432;2023-02-14T11:01:49;96738.28;;;3.73;100.00
41686;BME280;27370;42.764;23.432;2023-02-14T11:04:17;96746.31;;;3.97;100.00
41686;BME280;27370;42.764;23.432;2023-02-14T11:06:44;96738.19;;;3.94;100.00
41686;BME280;27370;42.764;23.432;2023-02-14T11:09:14;96753.56;;;3.73;100.00
41686;BME280;27370;42.764;23.432;2023-02-14T11:11:47;96754.31;;;3.61;100.00
41686;BME280;27370;42.764;23.432;2023-02-14T11:16:51;96749.44;;;3.63;100.00
41686;BME280;27370;42.764;23.432;2023-02-14T11:19:31;96757.56;;;3.54;100.00
41686;BME280;27370;42.764;23.432;2023-02-14T11:21:59;96740.81;;;3.57;100.00
41686;BME280;27370;42.764;23.432;2023-02-14T11:26:51;96735.91;;;3.59;100.00
41686;BME280;27370;42.764;23.432;2023-02-14T11:29:29;96732.13;;;3.48;100.00
41686;BME280;27370;42.764;23.432;2023-02-14T11:31:55;96721.63;;;3.55;100.00
41686;BME280;27370;42.764;23.432;2023-02-14T11:34:33;96736.16;;;3.66;100.00
41686;BME280;27370;42.764;23.432;2023-02-14T11:37:02;96730.13;;;3.82;100.00
41686;BME280;27370;42.764;23.432;2023-02-14T11:39:34;96730.09;;;3.45;100.00
41686;BME280;27370;42.764;23.432;2023-02-14T11:42:02;96738.72;;;3.63;100.00
41686;BME280;27370;42.764;23.432;2023-02-14T11:44:31;96729.00;;;3.58;100.00
41686;BME280;27370;42.764;23.432;2023-02-14T11:50:28;96724.06;;;3.36;100.00
41686;BME280;27370;42.764;23.432;2023-02-14T11:53:11;96716.13;;;3.27;100.00
41686;BME280;27370;42.764;23.432;2023-02-14T11:56:01;96708.53;;;3.17;100.00
41686;BME280;27370;42.764;23.432;2023-02-14T12:01:31;96705.75;;;3.26;100.00
41686;BME280;27370;42.764;23.432;2023-02-14T12:04:01;96693.06;;;3.47;100.00
41686;BME280;27370;42.764;23.432;2023-02-14T12:06:31;96684.59;;;3.57;100.00
41686;BME280;27370;42.764;23.432;2023-02-14T12:09:11;96699.66;;;3.98;100.00
41686;BME280;27370;42.764;23.432;2023-02-14T12:11:37;96698.41;;;4.20;100.00
41686;BME280;27370;42.764;23.432;2023-02-14T12:14:03;96697.97;;;4.18;100.00
41686;BME280;27370;42.764;23.432;2023-02-14T12:16:34;96687.69;;;4.20;100.00
41686;BME280;27370;42.764;23.432;2023-02-14T12:19:21;96691.63;;;4.11;100.00
41686;BME280;27370;42.764;23.432;2023-02-14T12:21:52;96698.84;;;4.22;100.00
41686;BME280;27370;42.764;23.432;2023-02-14T12:24:41;96681.72;;;4.39;100.00
41686;BME280;27370;42.764;23.432;2023-02-14T12:27:27;96688.34;;;4.17;100.00
41686;BME280;27370;42.764;23.432;2023-02-14T12:30:09;96684.56;;;4.18;100.00
41686;BME280;27370;42.764;23.432;2023-02-14T12:32:50;96684.56;;;4.06;100.00
41686;BME280;27370;42.764;23.432;2023-02-14T12:51:54;96683.94;;;3.85;100.00
41686;BME280;27370;42.764;23.432;2023-02-14T13:00:33;96677.00;;;3.96;100.00
41686;BME280;27370;42.764;23.432;2023-02-14T13:05:57;96672.22;;;3.89;100.00
41686;BME280;27370;42.764;23.432;2023-02-14T13:12:49;96674.00;;;3.85;100.00
41686;BME280;27370;42.764;23.432;2023-02-14T13:14:54;96662.38;;;3.93;100.00
41686;BME280;27370;42.764;23.432;2023-02-14T13:17:39;96661.59;;;3.93;100.00
41686;BME280;27370;42.764;23.432;2023-02-14T13:23:08;96652.34;;;3.90;100.00
41686;BME280;27370;42.764;23.432;2023-02-14T13:25:38;96643.28;;;3.83;100.00
41686;BME280;27370;42.764;23.432;2023-02-14T13:28:11;96656.47;;;3.88;100.00
41686;BME280;27370;42.764;23.432;2023-02-14T13:30:38;96642.06;;;3.80;100.00
41686;BME280;27370;42.764;23.432;2023-02-14T13:33:32;96649.91;;;3.85;100.00
41686;BME280;27370;42.764;23.432;2023-02-14T13:36:04;96657.69;;;3.78;100.00
41686;BME280;27370;42.764;23.432;2023-02-14T13:38:43;96651.56;;;3.65;100.00
41686;BME280;27370;42.764;23.432;2023-02-14T13:41:10;96659.59;;;3.78;100.00
41686;BME280;27370;42.764;23.432;2023-02-14T13:46:21;96655.38;;;3.64;100.00
41686;BME280;27370;42.764;23.432;2023-02-14T13:49:01;96661.38;;;3.61;100.00
41686;BME280;27370;42.764;23.432;2023-02-14T13:51:49;96654.59;;;3.40;100.00
41686;BME280;27370;42.764;23.432;2023-02-14T13:56:52;96662.63;;;3.52;100.00
41686;BME280;27370;42.764;23.432;2023-02-14T13:59:32;96670.19;;;3.62;100.00
41686;BME280;27370;42.764;23.432;2023-02-14T14:04:51;96667.19;;;3.51;100.00
41686;BME280;27370;42.764;23.432;2023-02-14T14:07:18;96670.19;;;3.50;100.00
41686;BME280;27370;42.764;23.432;2023-02-14T14:17:35;96658.72;;;3.49;100.00
41686;BME280;27370;42.764;23.432;2023-02-14T14:20:28;96664.16;;;3.53;100.00
41686;BME280;27370;42.764;23.432;2023-02-14T14:22:59;96655.59;;;3.47;100.00
41686;BME280;27370;42.764;23.432;2023-02-14T14:25:36;96651.78;;;3.48;100.00
41686;BME280;27370;42.764;23.432;2023-02-14T14:28:09;96642.44;;;3.66;100.00
41686;BME280;27370;42.764;23.432;2023-02-14T14:30:35;96643.41;;;3.62;100.00
41686;BME280;27370;42.764;23.432;2023-02-14T14:35:52;96644.41;;;3.57;100.00
41686;BME280;27370;42.764;23.432;2023-02-14T14:38:18;96630.34;;;3.60;100.00
41686;BME280;27370;42.764;23.432;2023-02-14T14:40:45;96639.72;;;3.54;100.00
41686;BME280;27370;42.764;23.432;2023-02-14T14:43:15;96647.22;;;3.49;100.00
41686;BME280;27370;42.764;23.432;2023-02-14T14:45:45;96639.97;;;3.49;100.00
41686;BME280;27370;42.764;23.432;2023-02-14T14:48:15;96631.38;;;3.44;100.00
41686;BME280;27370;42.764;23.432;2023-02-14T14:50:45;96646.66;;;3.55;100.00
41686;BME280;27370;42.764;23.432;2023-02-14T14:53:42;96633.81;;;3.36;100.00
41686;BME280;27370;42.764;23.432;2023-02-14T14:56:12;96643.06;;;3.39;100.00
41686;BME280;27370;42.764;23.432;2023-02-14T14:58:41;96645.56;;;3.44;100.00
41686;BME280;27370;42.764;23.432;2023-02-14T15:01:11;96646.00;;;3.46;100.00
41686;BME280;27370;42.764;23.432;2023-02-14T15:03:37;96637.94;;;3.34;100.00
41686;BME280;27370;42.764;23.432;2023-02-14T15:06:13;96639.84;;;3.33;100.00
41686;BME280;27370;42.764;23.432;2023-02-14T15:08:40;96642.63;;;3.25;100.00
41686;BME280;27370;42.764;23.432;2023-02-14T15:11:12;96651.53;;;3.17;100.00
41686;BME280;27370;42.764;23.432;2023-02-14T15:14:00;96657.13;;;3.24;100.00
41686;BME280;27370;42.764;23.432;2023-02-14T15:16:37;96647.59;;;3.02;100.00
41686;BME280;27370;42.764;23.432;2023-02-14T15:19:26;96659.66;;;3.08;100.00
41686;BME280;27370;42.764;23.432;2023-02-14T15:22:54;96660.88;;;3.11;100.00
41686;BME280;27370;42.764;23.432;2023-02-14T15:25:25;96647.28;;;3.03;100.00
41686;BME280;27370;42.764;23.432;2023-02-14T15:27:51;96657.66;;;3.05;100.00
41686;BME280;27370;42.764;23.432;2023-02-14T15:30:26;96638.97;;;2.84;100.00